Time;durP1;ratioP1;P1;durP2;ratioP2;P2;SDS_P1;SDS_P2;PMS_P1;PMS_P2;Temp;Humidity;BMP_temperature;BMP_pressure;BME280_temperature;BME280_humidity;BME280_pressure;Samples;Min_cycle;Max_cycle;Signal;HPM_P1;HPM_P2
2022/01/12 00:01:42;;;;;;;58.88;24.60;;;;;;;-15.50;87.11;102945.09;5040935;28;20084;-78
2022/01/12 00:04:09;;;;;;;55.90;23.58;;;;;;;-15.47;87.18;102918.66;5011476;28;20037;-79
2022/01/12 00:06:35;;;;;;;58.13;25.42;;;;;;;-15.45;87.34;102931.75;5010034;28;20061;-78
2022/01/12 00:09:05;;;;;;;54.47;23.10;;;;;;;-15.46;87.07;102916.88;5014628;28;20049;-78
2022/01/12 00:11:32;;;;;;;56.53;24.15;;;;;;;-15.44;87.29;102922.94;5031521;28;20037;-78
2022/01/12 00:13:57;;;;;;;60.67;24.80;;;;;;;-15.44;87.03;102921.19;5012237;28;20107;-79
2022/01/12 00:16:23;;;;;;;55.58;24.15;;;;;;;-15.45;87.33;102911.56;5016021;28;20533;-79
2022/01/12 00:18:49;;;;;;;56.85;23.67;;;;;;;-15.44;86.67;102917.69;5011447;28;20045;-78
2022/01/12 00:21:15;;;;;;;57.85;22.27;;;;;;;-15.42;87.30;102910.59;5005008;28;20421;-80
2022/01/12 00:23:41;;;;;;;50.35;22.40;;;;;;;-15.42;87.39;102907.97;5011468;28;20038;-78
2022/01/12 00:26:37;;;;;;;55.80;23.08;;;;;;;-15.41;87.30;102907.06;5025331;28;20518;-79
2022/01/12 00:34:36;;;;;;;51.60;21.45;;;;;;;-15.36;87.11;102899.84;5017092;28;20041;-79
2022/01/12 00:37:02;;;;;;;58.78;22.70;;;;;;;-15.38;87.03;102901.69;5015839;28;20037;-79
2022/01/12 00:39:28;;;;;;;52.80;22.10;;;;;;;-15.39;86.78;102897.34;5042484;28;20073;-80
2022/01/12 00:41:54;;;;;;;54.92;23.08;;;;;;;-15.38;87.13;102899.91;5026122;28;20033;-80
2022/01/12 00:44:24;;;;;;;59.47;23.75;;;;;;;-15.38;86.60;102891.16;5013760;28;20044;-80
2022/01/12 00:46:51;;;;;;;57.22;24.60;;;;;;;-15.39;87.05;102892.91;5017987;28;20042;-79
2022/01/12 00:49:17;;;;;;;56.35;23.35;;;;;;;-15.42;87.05;102884.28;5026103;28;20042;-79
2022/01/12 00:51:43;;;;;;;54.92;22.88;;;;;;;-15.42;87.17;102887.78;5031232;28;20038;-79
2022/01/12 00:54:09;;;;;;;55.63;23.52;;;;;;;-15.42;86.86;102884.28;5030852;28;20041;-79
2022/01/12 00:56:35;;;;;;;50.30;23.25;;;;;;;-15.46;86.96;102886.16;5019513;28;20049;-79
2022/01/12 00:59:00;;;;;;;51.83;22.80;;;;;;;-15.44;86.76;102875.56;5021055;28;20040;-80
2022/01/12 01:01:27;;;;;;;52.00;23.13;;;;;;;-15.47;86.69;102866.03;5035464;28;20081;-80
2022/01/12 01:03:53;;;;;;;51.25;23.23;;;;;;;-15.46;86.96;102877.41;5014282;28;20041;-80
2022/01/12 01:06:21;;;;;;;46.03;20.35;;;;;;;-15.44;87.07;102865.03;5018171;28;20516;-80
2022/01/12 01:08:50;;;;;;;44.25;20.15;;;;;;;-15.44;86.81;102865.03;5016318;28;20033;-80
2022/01/12 01:11:19;;;;;;;43.90;19.90;;;;;;;-15.44;87.13;102865.94;5046383;28;20042;-80
2022/01/12 01:13:56;;;;;;;43.05;19.85;;;;;;;-15.43;86.81;102872.91;5033798;28;20025;-80
2022/01/12 01:16:29;;;;;;;41.65;19.35;;;;;;;-15.40;87.01;102861.41;5028196;28;20534;-80
2022/01/12 01:27:08;;;;;;;36.15;19.52;;;;;;;-15.39;86.97;102853.44;5035307;28;20042;-79
2022/01/12 01:29:33;;;;;;;47.20;19.90;;;;;;;-15.38;86.72;102856.94;5029509;28;20096;-79
2022/01/12 01:32:00;;;;;;;47.13;19.92;;;;;;;-15.36;86.98;102853.31;5012638;28;20044;-80
2022/01/12 01:34:27;;;;;;;46.95;19.27;;;;;;;-15.35;86.54;102854.16;5012882;28;20038;-79
2022/01/12 01:36:55;;;;;;;42.25;18.77;;;;;;;-15.36;86.34;102844.56;5026970;28;20057;-79
2022/01/12 01:39:26;;;;;;;40.03;18.35;;;;;;;-15.43;86.79;102835.22;5016108;28;20494;-78
2022/01/12 01:42:00;;;;;;;42.72;19.20;;;;;;;-15.46;86.68;102830.03;5029222;28;20034;-78
2022/01/12 01:55:09;;;;;;;41.92;17.08;;;;;;;-15.52;86.83;102804.81;5016153;28;20045;-78
2022/01/12 01:57:36;;;;;;;38.08;17.08;;;;;;;-15.52;86.77;102801.34;5012659;28;20448;-78
2022/01/12 02:00:05;;;;;;;35.33;16.13;;;;;;;-15.52;86.55;102801.34;5035430;28;20045;-78
2022/01/12 02:02:38;;;;;;;35.92;16.20;;;;;;;-15.50;86.67;102796.88;5001719;28;20037;-78
2022/01/12 02:05:05;;;;;;;31.67;15.60;;;;;;;-15.51;86.56;102805.69;5032729;28;20569;-79
2022/01/12 02:07:32;;;;;;;32.58;15.70;;;;;;;-15.51;86.77;102796.00;5028762;28;20581;-79
2022/01/12 02:09:58;;;;;;;39.85;17.13;;;;;;;-15.50;86.60;102812.66;5026092;28;20037;-78
2022/01/12 02:12:37;;;;;;;36.53;15.48;;;;;;;-15.50;86.48;102803.00;5033112;28;20038;-79
2022/01/12 02:15:12;;;;;;;36.85;15.65;;;;;;;-15.51;86.31;102810.94;5028107;28;20504;-79
2022/01/12 02:17:47;;;;;;;32.38;14.40;;;;;;;-15.53;86.24;102797.84;5045080;28;20044;-79
2022/01/12 02:36:55;;;;;;;33.50;15.43;;;;;;;-15.49;85.91;102780.16;5031989;28;20539;-78
2022/01/12 02:42:06;;;;;;;35.72;15.35;;;;;;;-15.48;86.14;102774.84;5015978;28;20393;-79
2022/01/12 02:55:28;;;;;;;29.90;13.52;;;;;;;-15.46;86.09;102748.44;5028006;28;20042;-78
2022/01/12 02:57:54;;;;;;;31.73;13.75;;;;;;;-15.43;85.95;102745.72;5028397;28;20037;-79
2022/01/12 03:00:22;;;;;;;32.47;13.70;;;;;;;-15.42;86.23;102747.44;5028096;28;20030;-79
2022/01/12 03:02:51;;;;;;;32.92;14.60;;;;;;;-15.39;85.94;102752.56;5012579;28;20033;-79
2022/01/12 03:05:46;;;;;;;28.00;12.50;;;;;;;-15.39;85.83;102749.94;5044611;28;20049;-79
2022/01/12 03:08:15;;;;;;;27.83;13.00;;;;;;;-15.40;86.02;102737.69;5012046;28;20125;-78
2022/01/12 03:10:41;;;;;;;;;;;;;;;-15.37;85.94;102740.19;5029348;28;20034;-78
2022/01/12 03:13:07;;;;;;;24.05;11.55;;;;;;;-15.35;86.00;102733.09;5044008;28;19921;-78
2022/01/12 03:15:39;;;;;;;28.45;12.63;;;;;;;-15.32;85.85;102735.59;5012306;28;20049;-78
2022/01/12 03:18:06;;;;;;;28.35;13.20;;;;;;;-15.32;86.13;102722.44;5011920;28;20042;-79
2022/01/12 03:20:32;;;;;;;29.05;12.65;;;;;;;-15.31;85.60;102716.25;5043236;28;20057;-79
2022/01/12 03:22:58;;;;;;;27.00;12.75;;;;;;;-15.30;85.66;102716.19;5011951;28;20061;-79
2022/01/12 03:25:24;;;;;;;26.95;12.60;;;;;;;-15.32;86.17;102718.03;5015130;28;20139;-79
2022/01/12 03:27:56;;;;;;;24.65;12.07;;;;;;;-15.31;86.53;102697.81;5011926;28;20038;-79
2022/01/12 03:30:21;;;;;;;27.40;13.10;;;;;;;-15.29;85.94;102711.78;4994490;28;20042;-79
2022/01/12 03:33:01;;;;;;;21.95;11.07;;;;;;;-15.29;85.65;102714.41;5006985;28;20044;-79
2022/01/12 04:05:10;;;;;;;26.90;11.40;;;;;;;-15.27;85.67;102679.22;5008565;28;20073;-78
2022/01/12 04:10:21;;;;;;;23.25;11.30;;;;;;;-15.27;85.48;102678.34;5019772;28;20427;-79
2022/01/12 04:12:46;;;;;;;21.92;10.95;;;;;;;-15.27;85.78;102676.59;5011400;28;20524;-79
2022/01/12 04:15:12;;;;;;;27.85;11.68;;;;;;;-15.25;85.35;102669.47;5006018;28;20114;-79
2022/01/12 04:17:38;;;;;;;28.08;12.23;;;;;;;-15.24;85.77;102662.44;4993744;28;20492;-79
2022/01/12 04:20:04;;;;;;;26.02;11.15;;;;;;;-15.25;85.42;102655.47;5026286;28;20056;-79
2022/01/12 04:25:14;;;;;;;24.88;11.43;;;;;;;-15.28;85.49;102642.41;5026533;28;20045;-78
2022/01/12 04:27:40;;;;;;;21.27;10.27;;;;;;;-15.30;85.47;102636.34;5005428;28;20084;-78
2022/01/12 04:30:06;;;;;;;21.30;10.55;;;;;;;-15.33;85.26;102631.22;5042735;28;20038;-78
2022/01/12 04:32:37;;;;;;;24.45;11.40;;;;;;;-15.34;85.66;102637.41;5016424;28;20172;-78
2022/01/12 04:35:04;;;;;;;25.85;11.10;;;;;;;-15.37;85.57;102635.78;5021187;28;20045;-78
2022/01/12 04:37:30;;;;;;;21.80;10.02;;;;;;;-15.37;85.25;102629.66;5009739;28;20115;-80
2022/01/12 04:39:55;;;;;;;25.02;10.85;;;;;;;-15.37;85.43;102629.66;5010798;28;20440;-80
2022/01/12 04:42:21;;;;;;;23.45;10.35;;;;;;;-15.38;85.92;102620.06;5010114;28;20041;-79
2022/01/12 04:44:48;;;;;;;20.80;10.63;;;;;;;-15.38;85.17;102618.28;5010124;28;20049;-79
2022/01/12 04:47:28;;;;;;;23.38;10.95;;;;;;;-15.40;85.58;102614.00;5026099;28;20420;-79
2022/01/12 04:49:56;;;;;;;23.88;10.70;;;;;;;-15.43;85.17;102611.50;5026516;28;20075;-80
2022/01/12 04:52:22;;;;;;;25.00;11.48;;;;;;;-15.41;84.99;102596.50;5025899;28;20040;-79
2022/01/12 04:54:48;;;;;;;26.67;11.60;;;;;;;-15.44;85.82;102608.03;5010245;28;20038;-79
2022/01/12 04:57:14;;;;;;;25.02;11.05;;;;;;;-15.46;85.59;102603.72;5009891;28;20137;-79
2022/01/12 04:59:53;;;;;;;20.92;11.68;;;;;;;-15.46;85.27;102595.81;5026010;28;20580;-79
2022/01/12 05:08:11;;;;;;;22.75;10.75;;;;;;;-15.56;85.47;102593.59;5021363;28;20099;-79
2022/01/12 05:13:23;;;;;;;21.15;10.18;;;;;;;-15.60;85.35;102592.06;5026003;28;20092;-79
2022/01/12 05:15:50;;;;;;;20.30;9.70;;;;;;;-15.56;85.34;102587.50;5025049;28;20165;-79
2022/01/12 05:18:16;;;;;;;19.52;10.10;;;;;;;-15.57;85.48;102573.47;5041951;28;20512;-79
2022/01/12 05:20:42;;;;;;;24.15;10.23;;;;;;;-15.57;85.16;102570.00;5009203;28;20053;-79
2022/01/12 05:23:07;;;;;;;20.13;9.48;;;;;;;-15.59;85.74;102564.84;5025668;28;20042;-81
2022/01/12 05:25:33;;;;;;;17.98;8.82;;;;;;;-15.56;85.51;102559.41;5025016;28;20111;-81
2022/01/12 05:27:59;;;;;;;18.40;9.95;;;;;;;-15.58;85.17;102558.63;5009970;28;20404;-82
2022/01/12 05:30:25;;;;;;;20.55;9.38;;;;;;;-15.56;85.51;102564.66;5009624;28;20096;-82
2022/01/12 05:32:52;;;;;;;18.02;10.15;;;;;;;-15.56;85.38;102562.03;5009116;28;20133;-82
2022/01/12 05:35:20;;;;;;;18.40;9.02;;;;;;;-15.56;85.47;102567.28;5025999;28;20129;-81
2022/01/12 05:37:46;;;;;;;21.75;10.07;;;;;;;-15.56;85.28;102567.28;5007492;28;20041;-80
2022/01/12 05:40:14;;;;;;;21.80;10.65;;;;;;;-15.59;84.94;102567.47;5024434;28;20038;-82
2022/01/12 05:42:40;;;;;;;19.23;10.15;;;;;;;-15.58;85.21;102565.66;5030152;28;20042;-83
2022/01/12 05:45:08;;;;;;;28.02;13.00;;;;;;;-15.57;85.18;102564.72;5047222;28;20037;-83
2022/01/12 05:49:34;;;;;;;20.73;11.43;;;;;;;-15.59;85.52;102564.84;5042724;28;20041;-83
2022/01/12 05:50:30;;;;;;;24.02;10.63;;;;;;;-15.56;85.05;102562.03;5037593;28;20034;-83
2022/01/12 05:52:59;;;;;;;;;;;;;;;-15.56;84.94;102545.38;5042661;28;20038;-83
2022/01/12 05:55:25;;;;;;;21.23;10.35;;;;;;;-15.57;84.95;102539.28;5026646;28;19973;-83
2022/01/12 05:57:51;;;;;;;23.63;11.85;;;;;;;-15.57;85.03;102541.06;5042124;28;20042;-83
2022/01/12 06:00:19;;;;;;;23.60;11.43;;;;;;;-15.59;84.98;102550.81;5025213;28;20111;-82
2022/01/12 06:02:51;;;;;;;22.00;11.77;;;;;;;-15.59;84.69;102545.56;5025160;28;20435;-83
2022/01/12 06:05:19;;;;;;;20.85;10.63;;;;;;;-15.56;85.04;102534.88;5040581;28;20042;-82
2022/01/12 06:07:45;;;;;;;19.17;10.68;;;;;;;-15.55;84.70;102544.47;5039095;28;20042;-82
2022/01/12 06:10:12;;;;;;;18.77;10.73;;;;;;;-15.54;84.95;102538.28;5023506;28;20455;-82
2022/01/12 06:12:38;;;;;;;18.63;10.15;;;;;;;-15.50;84.92;102552.16;5021686;28;20034;-82
2022/01/12 06:15:05;;;;;;;23.05;11.77;;;;;;;-15.46;84.85;102556.34;5020477;28;20459;-81
2022/01/12 06:17:31;;;;;;;19.80;11.70;;;;;;;-15.43;84.68;102557.09;5020219;28;20069;-82
2022/01/12 06:19:57;;;;;;;23.42;10.75;;;;;;;-15.40;85.18;102550.84;5011227;28;20041;-81
2022/01/12 06:22:55;;;;;;;22.67;11.07;;;;;;;-15.35;84.73;102546.22;5056143;28;20063;-82
2022/01/12 06:25:21;;;;;;;21.67;10.43;;;;;;;-15.30;84.90;102542.44;5043582;28;20515;-81
2022/01/12 06:27:57;;;;;;;22.33;11.27;;;;;;;-15.26;85.00;102537.94;5044228;28;20044;-82
2022/01/12 06:32:54;;;;;;;18.58;10.50;;;;;;;-15.13;84.92;102531.16;5048578;28;20071;-81
2022/01/12 06:35:20;;;;;;;19.60;9.50;;;;;;;-15.05;84.77;102536.09;5063907;28;20059;-83
2022/01/12 06:37:46;;;;;;;24.10;10.25;;;;;;;-15.02;85.03;102531.53;5057198;28;20029;-83
2022/01/12 06:40:13;;;;;;;22.08;12.02;;;;;;;-14.95;85.21;102537.38;5052009;28;20028;-83
2022/01/12 06:42:40;;;;;;;21.27;10.90;;;;;;;-14.89;85.40;102544.16;5034929;28;20036;-84
2022/01/12 06:45:06;;;;;;;24.67;11.45;;;;;;;-14.82;84.96;102538.53;5052834;28;20588;-82
2022/01/12 06:47:32;;;;;;;18.73;10.57;;;;;;;-14.80;84.49;102536.66;5051045;28;20029;-82
2022/01/12 06:49:57;;;;;;;19.77;10.65;;;;;;;-14.75;84.93;102524.16;5052398;28;20041;-83
2022/01/12 06:52:23;;;;;;;22.83;11.70;;;;;;;-14.67;85.09;102521.16;5034600;28;20443;-82
2022/01/12 06:54:49;;;;;;;21.02;10.20;;;;;;;-14.62;85.18;102514.72;5017702;28;20037;-82
2022/01/12 06:57:17;;;;;;;24.73;10.50;;;;;;;-14.58;84.98;102504.03;5034544;28;20059;-82
2022/01/12 06:59:42;;;;;;;20.95;10.70;;;;;;;-14.55;84.69;102525.84;5034847;28;20462;-82
2022/01/12 07:02:08;;;;;;;22.17;10.07;;;;;;;-14.45;85.28;102527.09;5018094;28;20486;-82
2022/01/12 07:04:36;;;;;;;20.85;10.68;;;;;;;-14.38;84.96;102520.59;5067812;28;20547;-83
2022/01/12 07:07:03;;;;;;;19.33;9.95;;;;;;;-14.32;85.20;102511.50;5050910;28;20124;-82
2022/01/12 07:09:29;;;;;;;22.27;9.43;;;;;;;-14.29;85.03;102508.72;5050817;28;20041;-82
2022/01/12 07:12:04;;;;;;;23.10;8.88;;;;;;;-14.23;85.00;102515.47;5051003;28;20127;-83
2022/01/12 07:14:32;;;;;;;16.33;8.70;;;;;;;-14.15;84.91;102510.69;5050944;28;20037;-82
2022/01/12 07:16:59;;;;;;;17.98;8.27;;;;;;;-14.06;85.50;102512.84;5017898;28;20545;-83
2022/01/12 07:19:25;;;;;;;16.33;8.00;;;;;;;-14.02;85.58;102502.09;5044410;28;20051;-83
2022/01/12 07:21:50;;;;;;;14.43;7.13;;;;;;;-13.98;85.31;102496.66;5033918;28;20045;-82
2022/01/12 07:24:16;;;;;;;16.40;7.82;;;;;;;-13.78;85.24;102494.69;5033976;28;20045;-83
2022/01/12 07:26:41;;;;;;;14.38;7.22;;;;;;;-13.33;84.91;102487.97;5051951;28;20075;-82
2022/01/12 07:29:11;;;;;;;12.73;6.57;;;;;;;-12.94;84.72;102484.06;5050465;28;20147;-82
2022/01/12 07:31:36;;;;;;;13.35;7.38;;;;;;;-12.62;84.51;102474.34;5051068;28;20045;-81
2022/01/12 07:34:02;;;;;;;15.20;7.10;;;;;;;-12.50;84.65;102479.78;5033907;28;20525;-83
2022/01/12 07:36:27;;;;;;;13.40;7.93;;;;;;;-12.26;85.06;102474.03;5017472;28;20074;-82
2022/01/12 07:38:55;;;;;;;12.77;7.45;;;;;;;-11.98;84.41;102452.94;5051979;28;20123;-83
2022/01/12 07:41:21;;;;;;;13.32;6.38;;;;;;;-11.68;85.16;102454.69;5050496;28;20510;-83
2022/01/12 07:43:47;;;;;;;14.23;7.53;;;;;;;-11.34;85.50;102459.63;5050496;28;20582;-83
2022/01/12 07:46:12;;;;;;;14.80;7.68;;;;;;;-11.05;84.34;102464.91;5051342;28;20123;-83
2022/01/12 07:48:38;;;;;;;12.07;6.95;;;;;;;-10.75;84.10;102451.50;5053551;28;20075;-83
2022/01/12 07:51:03;;;;;;;15.95;7.78;;;;;;;-10.42;84.51;102445.78;5037665;28;20037;-83
2022/01/12 07:53:29;;;;;;;11.82;6.70;;;;;;;-10.15;84.09;102433.31;5034631;28;20037;-82
2022/01/12 07:55:55;;;;;;;12.27;7.05;;;;;;;-9.81;84.46;102433.69;5033749;28;20041;-84
2022/01/12 07:58:20;;;;;;;14.65;7.68;;;;;;;-9.58;85.13;102432.94;5054128;28;20499;-83
2022/01/12 08:00:46;;;;;;;12.45;7.00;;;;;;;-9.43;84.87;102433.69;5041003;28;20111;-82
2022/01/12 08:03:12;;;;;;;14.93;7.40;;;;;;;-9.76;84.41;102427.09;5054511;28;20037;-82
2022/01/12 08:05:38;;;;;;;14.25;7.50;;;;;;;-9.94;85.20;102424.84;5052421;28;20044;-83
2022/01/12 08:08:04;;;;;;;12.15;6.85;;;;;;;-10.24;84.86;102425.13;5066918;28;20123;-82
2022/01/12 08:10:30;;;;;;;16.13;8.23;;;;;;;-10.44;84.82;102419.34;5051218;28;20124;-82
2022/01/12 08:12:55;;;;;;;14.23;8.32;;;;;;;-10.60;84.97;102421.31;5033127;28;20502;-82
2022/01/12 08:15:21;;;;;;;16.48;8.68;;;;;;;-10.81;85.03;102412.97;5066683;28;20091;-82
2022/01/12 08:17:47;;;;;;;16.23;8.85;;;;;;;-11.05;84.88;102402.16;5050861;28;20045;-82
2022/01/12 08:20:15;;;;;;;17.58;10.88;;;;;;;-11.31;84.23;102405.59;5050922;28;20522;-83
2022/01/12 08:22:40;;;;;;;21.65;11.43;;;;;;;-11.54;83.58;102407.03;5051088;28;20460;-82
2022/01/12 08:25:08;;;;;;;22.60;12.10;;;;;;;-11.78;83.08;102403.28;5033185;28;20161;-82
2022/01/12 08:27:34;;;;;;;27.17;12.27;;;;;;;-11.87;82.77;102402.88;5032927;28;20044;-82
2022/01/12 08:30:01;;;;;;;24.05;11.70;;;;;;;-11.93;82.97;102395.31;5029700;28;20041;-84
2022/01/12 08:32:28;;;;;;;22.13;11.75;;;;;;;-12.02;83.65;102401.16;5032602;28;20060;-84
2022/01/12 08:34:55;;;;;;;25.15;13.27;;;;;;;-12.25;83.55;102394.59;5032659;28;20462;-84
2022/01/12 08:37:21;;;;;;;25.58;11.70;;;;;;;-12.38;82.87;102382.16;5049586;28;20048;-83
2022/01/12 08:39:46;;;;;;;24.05;11.55;;;;;;;-12.42;83.27;102376.22;5050917;28;20590;-83
2022/01/12 08:42:12;;;;;;;27.95;13.02;;;;;;;-12.44;83.56;102361.38;5049432;28;20029;-83
2022/01/12 08:44:37;;;;;;;24.75;12.40;;;;;;;-12.55;83.58;102354.94;5051046;28;20043;-83
2022/01/12 08:47:05;;;;;;;25.73;12.75;;;;;;;-12.61;83.27;102365.03;5050900;28;20045;-83
2022/01/12 08:49:30;;;;;;;26.45;11.57;;;;;;;-12.61;84.16;102360.59;5033181;28;20068;-83
2022/01/12 08:51:56;;;;;;;25.88;13.27;;;;;;;-12.63;83.35;102358.97;5032681;28;20060;-83
2022/01/12 08:54:22;;;;;;;23.17;12.43;;;;;;;-12.70;83.30;102342.59;5032739;28;20522;-82
2022/01/12 08:56:48;;;;;;;22.90;11.57;;;;;;;-12.75;84.07;102339.38;5050609;28;20052;-84
2022/01/12 08:59:14;;;;;;;19.85;11.15;;;;;;;-12.79;82.99;102343.16;5049082;28;20527;-82
2022/01/12 09:01:40;;;;;;;25.05;12.70;;;;;;;-12.76;83.45;102335.03;5050508;28;20045;-82
2022/01/12 09:04:06;;;;;;;22.13;12.10;;;;;;;-12.71;83.71;102327.69;5047941;28;20446;-83
2022/01/12 09:06:31;;;;;;;24.40;12.35;;;;;;;-12.71;84.33;102319.75;5050365;28;20499;-82
2022/01/12 09:08:57;;;;;;;25.50;12.75;;;;;;;-12.76;84.29;102313.88;5050082;28;20120;-84
2022/01/12 09:11:23;;;;;;;21.30;12.32;;;;;;;-12.82;83.56;102301.91;5032434;28;20128;-82
2022/01/12 09:13:48;;;;;;;22.48;11.93;;;;;;;-12.84;83.87;102306.44;5032724;28;20063;-84
2022/01/12 09:16:14;;;;;;;25.20;12.02;;;;;;;-12.83;84.09;102304.63;5050194;28;20055;-84
2022/01/12 09:18:42;;;;;;;25.08;11.00;;;;;;;-12.85;83.81;102307.34;5033434;28;20556;-82
2022/01/12 09:21:07;;;;;;;27.20;11.88;;;;;;;-12.85;84.51;102303.84;5052564;28;20052;-82
2022/01/12 09:23:34;;;;;;;24.13;11.65;;;;;;;-12.92;83.84;102310.44;5036913;28;20490;-84
2022/01/12 09:26:00;;;;;;;21.48;11.93;;;;;;;-12.99;84.14;102307.31;5036202;28;20087;-83
2022/01/12 09:28:25;;;;;;;23.35;10.40;;;;;;;-12.95;84.27;102297.41;5036361;28;20036;-82
2022/01/12 09:30:52;;;;;;;20.63;11.68;;;;;;;-12.93;83.94;102296.38;5036369;28;20052;-83
2022/01/12 09:33:18;;;;;;;21.65;10.25;;;;;;;-12.92;83.48;102297.22;5054737;28;20070;-84
2022/01/12 09:35:45;;;;;;;20.20;11.27;;;;;;;-12.98;83.75;102277.31;5044386;28;20037;-84
2022/01/12 09:38:11;;;;;;;22.02;10.75;;;;;;;-13.00;83.78;102278.34;5056525;28;20083;-83
2022/01/12 09:40:38;;;;;;;23.80;10.25;;;;;;;-12.93;84.06;102269.09;5055443;28;20075;-83
2022/01/12 09:43:05;;;;;;;21.35;10.40;;;;;;;-12.97;84.19;102257.88;5031959;28;20121;-83
2022/01/12 09:45:32;;;;;;;21.50;10.95;;;;;;;-13.07;83.94;102259.34;5061866;28;20046;-82
2022/01/12 09:47:58;;;;;;;19.67;9.93;;;;;;;-13.14;83.94;102261.50;5060380;28;20041;-83
2022/01/12 09:50:24;;;;;;;21.75;10.90;;;;;;;-13.15;84.17;102267.72;5060168;28;20067;-82
2022/01/12 09:52:50;;;;;;;20.75;10.93;;;;;;;-13.15;83.65;102267.72;5042958;28;20044;-83
2022/01/12 09:55:17;;;;;;;19.60;10.48;;;;;;;-13.17;84.24;102259.03;5025500;28;20037;-82
2022/01/12 09:57:43;;;;;;;17.58;9.88;;;;;;;-13.20;83.19;102251.28;5053687;28;20087;-82
2022/01/12 10:00:10;;;;;;;18.08;10.10;;;;;;;-13.14;83.49;102247.44;5057798;28;20041;-82
2022/01/12 10:02:41;;;;;;;19.08;10.52;;;;;;;-13.03;83.99;102246.78;5036952;28;20048;-82
2022/01/12 10:05:08;;;;;;;24.05;10.50;;;;;;;-12.96;83.94;102238.44;5052543;28;20047;-82
2022/01/12 10:07:34;;;;;;;21.90;10.88;;;;;;;-12.90;84.07;102221.34;5036312;28;20032;-82
2022/01/12 10:10:04;;;;;;;19.65;9.57;;;;;;;-12.88;83.51;102228.25;5052456;28;20071;-82
2022/01/12 10:12:30;;;;;;;24.08;10.35;;;;;;;-12.90;84.00;102230.13;5052577;28;20075;-82
2022/01/12 10:15:00;;;;;;;19.50;10.30;;;;;;;-12.90;84.27;102213.44;5052513;28;20041;-82
2022/01/12 10:17:35;;;;;;;23.50;11.27;;;;;;;-12.83;84.13;102212.13;5035695;28;20147;-83
2022/01/12 10:20:13;;;;;;;21.83;10.13;;;;;;;-12.82;83.40;102205.91;5047107;28;20078;-82
2022/01/12 10:22:43;;;;;;;21.85;11.07;;;;;;;-12.79;83.74;102187.22;5032127;28;20068;-82
2022/01/12 10:25:19;;;;;;;21.58;10.38;;;;;;;-12.69;84.30;102190.13;5031611;28;20041;-82
2022/01/12 10:27:46;;;;;;;18.20;9.50;;;;;;;-12.69;84.48;102183.06;5036151;28;20116;-83
2022/01/12 10:30:32;;;;;;;22.23;11.63;;;;;;;-12.68;83.70;102173.34;5054429;28;20068;-83
2022/01/12 10:33:16;;;;;;;19.00;10.45;;;;;;;-12.62;84.26;102175.63;5054985;28;20503;-82
2022/01/12 10:35:42;;;;;;;20.88;10.15;;;;;;;-12.55;83.97;102166.34;5039269;28;20044;-82
2022/01/12 10:38:15;;;;;;;29.42;10.93;;;;;;;-12.50;84.32;102162.47;5055812;28;20043;-83
2022/01/12 10:40:52;;;;;;;17.52;9.57;;;;;;;-12.39;83.83;102158.31;5053201;28;20094;-82
2022/01/12 10:43:28;;;;;;;25.52;11.73;;;;;;;-12.33;84.20;102164.06;5036680;28;20075;-82
2022/01/12 10:45:54;;;;;;;22.35;10.73;;;;;;;-12.34;84.13;102150.94;5057752;28;20056;-82
2022/01/12 10:48:19;;;;;;;20.08;11.77;;;;;;;-12.39;83.59;102148.59;5056226;28;20041;-82
2022/01/12 10:50:56;;;;;;;20.63;10.68;;;;;;;-12.36;84.49;102142.25;5073076;28;20040;-83
2022/01/12 10:53:26;;;;;;;20.60;11.23;;;;;;;-12.35;84.48;102139.53;5057749;28;20521;-83
2022/01/12 10:56:03;;;;;;;15.40;8.70;;;;;;;-12.30;83.92;102126.03;5043429;28;20037;-83
2022/01/12 10:58:28;;;;;;;18.23;7.80;;;;;;;-12.29;83.66;102123.28;5031202;28;20083;-82
2022/01/12 11:00:54;;;;;;;18.20;8.48;;;;;;;-12.24;83.86;102107.09;5027975;28;20041;-84
2022/01/12 11:03:19;;;;;;;17.88;7.72;;;;;;;-12.17;84.12;102116.34;5051292;28;20036;-83
2022/01/12 11:05:46;;;;;;;17.33;8.23;;;;;;;-12.09;84.24;102110.56;5067734;28;20041;-83
2022/01/12 11:08:11;;;;;;;23.02;9.07;;;;;;;-12.07;84.28;102111.31;5067277;28;20040;-83
2022/01/12 11:10:38;;;;;;;18.77;8.15;;;;;;;-12.06;84.07;102108.56;5069970;28;20036;-81
2022/01/12 11:13:03;;;;;;;22.23;9.45;;;;;;;-12.03;83.49;102096.94;5050870;28;20037;-81
2022/01/12 11:15:29;;;;;;;17.23;9.43;;;;;;;-12.01;84.20;102101.19;5068007;28;20052;-81
2022/01/12 11:17:55;;;;;;;16.25;7.97;;;;;;;-11.92;84.49;102090.00;5067596;28;20051;-82
2022/01/12 11:20:25;;;;;;;20.80;9.05;;;;;;;-11.83;84.34;102077.09;5051874;28;20053;-81
2022/01/12 11:23:05;;;;;;;17.42;7.82;;;;;;;-11.79;83.50;102074.19;5039215;28;20041;-78
2022/01/12 11:25:37;;;;;;;17.75;8.85;;;;;;;-11.77;83.90;102056.34;5033705;28;20146;-80
2022/01/12 11:28:10;;;;;;;17.60;6.50;;;;;;;-11.77;83.21;102066.94;5035287;28;20101;-80
2022/01/12 11:30:57;;;;;;;20.05;8.98;;;;;;;-11.71;83.57;102057.72;5038029;28;20103;-81
2022/01/12 11:33:44;;;;;;;20.58;8.50;;;;;;;-11.64;84.30;102059.84;5050870;28;20142;-82
2022/01/12 11:36:28;;;;;;;20.17;9.55;;;;;;;-11.54;84.17;102041.56;5040097;28;20110;-81
2022/01/12 11:39:11;;;;;;;23.30;8.30;;;;;;;-11.46;83.75;102038.38;5051692;28;20127;-81
2022/01/12 11:41:47;;;;;;;19.70;8.60;;;;;;;-11.37;83.48;102038.63;5024440;28;20680;-80
2022/01/12 11:44:16;;;;;;;21.42;8.23;;;;;;;-11.33;84.19;102016.25;5067633;28;20124;-81
2022/01/12 11:46:48;;;;;;;20.13;8.52;;;;;;;-11.28;84.23;102011.50;5052416;28;20501;-87
2022/01/12 11:49:33;;;;;;;14.20;7.72;;;;;;;-11.20;84.68;101992.41;5055876;28;20041;-88
2022/01/12 11:52:00;;;;;;;14.82;7.28;;;;;;;-11.14;83.84;101983.16;5031875;28;20403;-86
2022/01/12 11:54:31;;;;;;;18.75;8.43;;;;;;;-11.08;84.82;101974.81;5036344;28;20059;-87
2022/01/12 11:57:00;;;;;;;14.20;7.47;;;;;;;-11.07;84.87;101960.59;5053853;28;20135;-87
2022/01/12 11:59:28;;;;;;;20.98;8.15;;;;;;;-10.99;84.68;101952.94;5036994;28;20079;-86
2022/01/12 12:02:07;;;;;;;13.63;7.13;;;;;;;-10.93;84.50;101941.03;5020273;28;20105;-87
2022/01/12 12:04:33;;;;;;;14.38;7.35;;;;;;;-10.88;84.23;101945.06;5054636;28;20120;-88
2022/01/12 12:07:02;;;;;;;16.17;8.70;;;;;;;-10.79;83.87;101947.03;5036611;28;20044;-87
2022/01/12 12:09:43;;;;;;;20.00;8.52;;;;;;;-10.71;83.99;101946.50;5042804;28;20033;-84
2022/01/12 12:12:15;;;;;;;17.50;7.78;;;;;;;-10.68;84.60;101952.44;5043888;28;20387;-86
2022/01/12 12:14:43;;;;;;;20.33;8.60;;;;;;;-10.61;84.16;101946.66;5057980;28;20403;-85
2022/01/12 12:17:09;;;;;;;14.88;7.05;;;;;;;-10.60;84.66;101940.41;5032642;28;20039;-81
2022/01/12 12:19:37;;;;;;;13.35;6.70;;;;;;;-10.58;84.66;101949.97;5065251;28;20072;-82
2022/01/12 12:22:28;;;;;;;13.82;7.90;;;;;;;-10.54;84.68;101938.16;5060592;28;20091;-83
2022/01/12 12:25:21;;;;;;;15.25;7.68;;;;;;;-10.47;84.22;101939.38;5051651;28;20128;-80
2022/01/12 12:27:53;;;;;;;16.50;7.38;;;;;;;-10.43;84.91;101935.53;5030272;28;20059;-79
2022/01/12 12:30:19;;;;;;;16.25;7.53;;;;;;;-10.40;84.88;101926.53;5065799;28;20040;-81
2022/01/12 12:32:52;;;;;;;17.58;8.45;;;;;;;-10.39;84.27;101929.06;5065903;28;20164;-83
2022/01/12 12:35:23;;;;;;;17.45;7.43;;;;;;;-10.36;84.36;101923.53;5050616;28;20033;-83
2022/01/12 12:37:55;;;;;;;19.27;7.72;;;;;;;-10.30;85.10;101922.22;5065378;28;20040;-79
2022/01/12 12:40:29;;;;;;;20.23;8.98;;;;;;;-10.24;85.47;101916.44;5031585;28;20118;-82
2022/01/12 12:43:01;;;;;;;12.30;7.07;;;;;;;-10.18;85.52;101909.81;5015392;28;20059;-82
2022/01/12 12:45:41;;;;;;;19.23;8.90;;;;;;;-10.15;85.37;101902.47;5039424;28;20040;-81
2022/01/12 12:48:08;;;;;;;15.10;7.30;;;;;;;-10.10;84.91;101889.69;5050452;28;20040;-82
2022/01/12 12:50:34;;;;;;;12.45;6.70;;;;;;;-10.08;84.59;101882.44;5045913;28;20052;-82
2022/01/12 12:53:00;;;;;;;17.15;7.30;;;;;;;-10.07;84.93;101868.19;5066891;28;20033;-84